Aurora, SD (57002)

7:19 AM CDT on July 29, 2016 (GMT -0500)
Aurora | | Change Station

Elev 1634 ft 44.29 °N, 96.68 °W | Updated 15 seconds ago

Clear
Clear
58.3 °F
Feels Like 58.3 °F
N
0.9
Wind Variable Wind from North
Gusts 2.5 mph

Today
High -- | Low -- °F
--% Chance of Precip.
Yesterday
High -- | Low -- °F
Precip. -- in
Pressure 30.12 in
Visibility 10.0 miles
Clouds Clear
Dew Point 54 °F
Humidity 87%
Rainfall 0.00 in
Snow Depth Not available.
6:11 AM 8:54 PM
Waning Crescent, 22% visible
METAR KBKX 291156Z AUTO 05003KT 10SM CLR 13/12 A3009 RMK AO2 SLP200 7//// T01280117 10150 20111 53002
Pressure 30.12 in
Visibility 10.0 miles
Clouds Clear
Dew Point 54 °F
Humidity 87%
Rainfall 0.00 in
Snow Depth Not available.
6:11 AM 8:54 PM
Waning Crescent, 22% visible
METAR KBKX 291156Z AUTO 05003KT 10SM CLR 13/12 A3009 RMK AO2 SLP200 7//// T01280117 10150 20111 53002

10-Day Weather Forecast

Almanac

Astronomy

Jul. 29, 2016 Rise Set
Actual Time
Civil Twilight
Nautical Twilight
Astronomical Twilight
Moon
Length of Visible Light
Length of Day
Tomorrow will be .
, % of the Moon is Illuminated

Today's Extremes

State Highs State Lows

Community

WunderPhotos

Upload Photos

1,928,330 photos uploaded!

WunderBlog® & News

Nearby

Air Quality

  Air Quality AQ Index Pollutant
Not available.

Snow Depth

Station Depth Elevation

Earthquake Activity

City Distance Mag. Time & Date
Minimum magnitude displayed is 2.5.

Coastal Water Temperatures

Place Temperature

Stations

Nearby Weather Stations

Station Location Temp. Windchill Dew Point Humidity Wind Precip. Elev Updated Type
                   

Watches & Warnings

There are currently no watches in effect.